Time;durP1;ratioP1;P1;durP2;ratioP2;P2;SDS_P1;SDS_P2;PMS_P1;PMS_P2;Temp;Humidity;BMP_temperature;BMP_pressure;BME280_temperature;BME280_humidity;BME280_pressure;Samples;Min_cycle;Max_cycle;Signal;HPM_P1;HPM_P2
2021/07/22 00:00:27;;;;;;;19.52;11.57;;;;;;;24.87;44.73;101587.06;5073829;28;20055;-63
2021/07/22 00:02:54;;;;;;;17.23;12.02;;;;;;;24.79;44.79;101579.75;5073531;28;20048;-64
2021/07/22 00:05:22;;;;;;;17.33;10.98;;;;;;;24.68;45.09;101590.09;5073269;28;20059;-63
2021/07/22 00:07:50;;;;;;;21.88;11.65;;;;;;;24.67;45.21;101592.09;5073797;28;20053;-63
2021/07/22 00:10:17;;;;;;;13.77;10.82;;;;;;;24.59;45.13;101578.31;5055565;28;20055;-63
2021/07/22 00:12:44;;;;;;;15.70;11.23;;;;;;;24.45;45.82;101585.44;5073053;28;20056;-63
2021/07/22 00:15:12;;;;;;;18.05;11.52;;;;;;;24.46;45.35;101587.06;5073259;28;20059;-63
2021/07/22 00:17:39;;;;;;;21.08;11.25;;;;;;;24.46;45.57;101581.41;5073164;28;20056;-63
2021/07/22 00:20:07;;;;;;;17.45;11.93;;;;;;;24.77;44.86;101574.53;5055621;28;20532;-65
2021/07/22 00:22:38;;;;;;;14.70;10.93;;;;;;;24.87;44.81;101575.78;5055395;28;20057;-65
2021/07/22 00:25:06;;;;;;;15.93;10.75;;;;;;;24.71;45.07;101578.06;5055257;28;20056;-63
2021/07/22 00:27:34;;;;;;;18.05;10.65;;;;;;;24.62;45.28;101583.19;5055009;28;20044;-63
2021/07/22 00:30:01;;;;;;;19.08;11.90;;;;;;;24.52;45.42;101588.34;5055553;28;20052;-63
2021/07/22 00:32:29;;;;;;;15.52;10.55;;;;;;;24.45;45.69;101587.44;5073368;28;20048;-63
2021/07/22 00:34:56;;;;;;;20.02;10.98;;;;;;;24.32;46.13;101583.28;5072738;28;20056;-63
2021/07/22 00:37:24;;;;;;;17.02;11.10;;;;;;;24.65;45.48;101586.06;5055453;28;20048;-64
2021/07/22 00:39:51;;;;;;;16.25;11.45;;;;;;;24.59;45.53;101586.78;5055267;28;20056;-63
2021/07/22 00:42:18;;;;;;;16.95;11.10;;;;;;;24.34;46.09;101580.88;5072860;28;20055;-64
2021/07/22 00:44:46;;;;;;;16.17;11.13;;;;;;;24.10;46.79;101595.47;5054894;28;20052;-63
2021/07/22 00:47:15;;;;;;;13.88;10.68;;;;;;;24.01;46.94;101594.97;5056553;28;20052;-65
2021/07/22 00:49:46;;;;;;;15.77;11.25;;;;;;;23.98;47.10;101585.25;5076748;28;20060;-63
2021/07/22 00:52:14;;;;;;;16.45;10.27;;;;;;;24.06;46.89;101584.19;5075641;28;20051;-65
2021/07/22 00:54:41;;;;;;;16.15;11.40;;;;;;;24.08;47.02;101589.41;5076249;28;20416;-65
2021/07/22 00:57:09;;;;;;;15.65;10.50;;;;;;;24.17;46.77;101589.94;5078374;28;20040;-63
2021/07/22 00:59:36;;;;;;;14.80;10.15;;;;;;;24.13;46.68;101589.91;5078845;28;20589;-63
2021/07/22 01:02:04;;;;;;;16.70;10.55;;;;;;;24.34;46.42;101594.94;5097130;28;20048;-63
2021/07/22 01:04:32;;;;;;;15.50;10.23;;;;;;;24.20;46.96;101592.78;5096404;28;20052;-63
2021/07/22 01:06:59;;;;;;;15.10;10.85;;;;;;;24.04;47.35;101600.63;5078572;28;20040;-63
2021/07/22 01:09:26;;;;;;;15.35;11.35;;;;;;;24.31;46.79;101590.09;5097007;28;20040;-62
2021/07/22 01:11:58;;;;;;;15.52;11.35;;;;;;;24.51;46.49;101597.19;5096743;28;20102;-64
2021/07/22 01:14:25;;;;;;;14.45;10.75;;;;;;;24.10;47.81;101601.13;5096417;28;20442;-63
2021/07/22 01:16:56;;;;;;;21.38;11.93;;;;;;;24.17;47.67;101593.56;5078307;28;20059;-64
2021/07/22 01:19:23;;;;;;;16.63;11.50;;;;;;;23.97;48.29;101599.72;5096470;28;20055;-63
2021/07/22 01:21:52;;;;;;;20.17;11.75;;;;;;;24.02;48.20;101599.41;5078709;28;20044;-62
2021/07/22 01:24:19;;;;;;;16.27;11.18;;;;;;;24.07;48.17;101593.44;5077578;28;20403;-63
2021/07/22 01:27:05;;;;;;;16.20;11.38;;;;;;;24.18;48.09;101592.38;5078351;28;20058;-63
2021/07/22 01:29:42;;;;;;;20.13;11.50;;;;;;;24.14;48.06;101590.72;5077493;28;20056;-63
2021/07/22 01:32:10;;;;;;;17.67;11.20;;;;;;;24.27;47.37;101589.25;5096612;28;20095;-63
2021/07/22 01:34:37;;;;;;;25.35;11.70;;;;;;;24.32;47.43;101595.34;5078277;28;20495;-63
2021/07/22 01:37:04;;;;;;;15.98;11.20;;;;;;;24.13;47.82;101594.72;5078161;28;20048;-62
2021/07/22 01:39:33;;;;;;;17.70;11.48;;;;;;;24.14;47.78;101594.34;5078339;28;20062;-63
2021/07/22 01:42:02;;;;;;;17.35;10.68;;;;;;;23.98;48.25;101593.72;5078020;28;20058;-64
2021/07/22 01:44:29;;;;;;;18.95;11.02;;;;;;;24.17;47.86;101589.94;5095888;28;20059;-63
2021/07/22 01:46:58;;;;;;;18.07;11.57;;;;;;;24.23;47.59;101585.59;5095795;28;20051;-63
2021/07/22 01:49:26;;;;;;;19.83;11.18;;;;;;;24.32;47.39;101597.38;5096102;28;20293;-64
2021/07/22 01:51:59;;;;;;;16.27;10.90;;;;;;;24.26;47.42;101590.44;5077863;28;20399;-64
2021/07/22 01:54:28;;;;;;;16.30;11.18;;;;;;;24.23;47.38;101591.22;5061066;28;20071;-65
2021/07/22 01:56:59;;;;;;;16.13;11.07;;;;;;;24.06;47.90;101591.84;5064915;28;20055;-64
2021/07/22 01:59:38;;;;;;;16.60;10.85;;;;;;;23.74;48.45;101590.56;5057438;28;20052;-63
2021/07/22 02:02:08;;;;;;;15.32;11.05;;;;;;;23.69;48.78;101585.28;5041299;28;20052;-64
2021/07/22 02:04:38;;;;;;;20.52;11.68;;;;;;;23.79;48.60;101582.59;5057319;28;20674;-64
2021/07/22 02:07:11;;;;;;;20.13;11.20;;;;;;;23.79;48.66;101582.59;5075559;28;20039;-64
2021/07/22 02:09:54;;;;;;;18.40;11.35;;;;;;;23.93;48.48;101585.59;5026298;28;20059;-63
2021/07/22 02:12:21;;;;;;;16.17;11.02;;;;;;;23.85;48.43;101580.28;5075205;28;20056;-63
2021/07/22 02:14:52;;;;;;;16.85;10.75;;;;;;;23.95;48.02;101582.41;5075447;28;20052;-63
2021/07/22 02:17:21;;;;;;;15.45;10.70;;;;;;;23.54;48.92;101580.66;5074836;28;20500;-63
2021/07/22 02:19:48;;;;;;;18.15;10.40;;;;;;;23.25;49.40;101579.38;5057468;28;20055;-63
2021/07/22 02:22:16;;;;;;;16.25;11.10;;;;;;;23.31;49.05;101575.06;5057055;28;20484;-63
2021/07/22 02:25:13;;;;;;;13.90;10.07;;;;;;;23.23;49.57;101576.94;5065677;28;20051;-64
2021/07/22 02:27:46;;;;;;;18.42;10.48;;;;;;;23.20;49.68;101571.28;5056863;28;20044;-63
2021/07/22 02:30:14;;;;;;;15.10;10.73;;;;;;;23.33;49.40;101581.13;5040970;28;20380;-63
2021/07/22 02:32:42;;;;;;;17.20;10.52;;;;;;;23.28;49.51;101576.66;5056975;28;20048;-63
2021/07/22 02:35:10;;;;;;;14.35;10.40;;;;;;;23.23;49.53;101576.13;5056307;28;20064;-65
2021/07/22 02:37:55;;;;;;;16.92;10.75;;;;;;;23.34;49.36;101577.94;5059824;28;20041;-63
2021/07/22 02:40:25;;;;;;;15.07;10.57;;;;;;;23.35;49.32;101575.94;5056790;28;20496;-62
2021/07/22 02:42:53;;;;;;;15.98;10.38;;;;;;;23.41;49.24;101577.25;5056030;28;20506;-63
2021/07/22 02:45:24;;;;;;;17.60;11.05;;;;;;;23.57;48.68;101574.25;5040714;28;20052;-63
2021/07/22 02:47:52;;;;;;;15.07;10.57;;;;;;;23.49;49.10;101580.97;5056227;28;20052;-63
2021/07/22 02:50:20;;;;;;;16.10;11.05;;;;;;;23.39;49.39;101579.63;5056573;28;20048;-63
2021/07/22 02:52:52;;;;;;;15.60;10.77;;;;;;;23.07;50.18;101590.34;5056599;28;20055;-63
2021/07/22 02:55:20;;;;;;;19.88;11.20;;;;;;;23.11;50.17;101585.59;5074076;28;20065;-64
2021/07/22 02:57:47;;;;;;;15.27;10.80;;;;;;;23.08;50.17;101582.72;5058881;28;20048;-64
2021/07/22 03:00:15;;;;;;;20.65;10.38;;;;;;;23.08;50.21;101589.16;5076584;28;20052;-63
2021/07/22 03:02:43;;;;;;;15.25;11.05;;;;;;;23.15;49.87;101586.44;5076062;28;20056;-63
2021/07/22 03:05:12;;;;;;;16.67;10.52;;;;;;;23.11;49.79;101582.78;5059968;28;20048;-63
2021/07/22 03:07:44;;;;;;;15.43;10.45;;;;;;;23.14;49.95;101589.63;5060072;28;20047;-65
2021/07/22 03:10:14;;;;;;;14.05;10.50;;;;;;;22.95;50.37;101582.13;5075837;28;20056;-64
2021/07/22 03:12:41;;;;;;;19.23;11.35;;;;;;;22.86;50.75;101589.16;5075912;28;20052;-63
2021/07/22 03:15:09;;;;;;;17.55;11.05;;;;;;;22.98;50.49;101584.16;5059760;28;20059;-64
2021/07/22 03:17:43;;;;;;;16.35;11.10;;;;;;;23.19;49.68;101592.13;5075993;28;20052;-63
2021/07/22 03:20:12;;;;;;;15.90;11.15;;;;;;;23.12;49.77;101587.22;5094384;28;20051;-63
2021/07/22 03:22:45;;;;;;;16.27;10.50;;;;;;;23.23;49.80;101590.19;5076047;28;20048;-62
2021/07/22 03:25:19;;;;;;;14.77;11.18;;;;;;;23.16;49.71;101595.69;5075682;28;20048;-64
2021/07/22 03:28:04;;;;;;;16.85;10.70;;;;;;;23.13;49.71;101590.84;5075808;28;20490;-63
2021/07/22 03:31:06;;;;;;;18.30;10.73;;;;;;;23.13;49.83;101591.66;5082074;28;20526;-64
2021/07/22 03:33:49;;;;;;;15.75;10.80;;;;;;;23.23;49.51;101598.63;5076284;28;20541;-63
2021/07/22 03:36:19;;;;;;;19.23;11.05;;;;;;;22.96;50.14;101594.97;5075904;28;20052;-64
2021/07/22 03:38:56;;;;;;;19.58;11.00;;;;;;;23.15;49.71;101582.84;5076222;28;20040;-63
2021/07/22 03:41:35;;;;;;;16.70;11.63;;;;;;;22.98;50.15;101589.00;5093966;28;20048;-63
2021/07/22 03:44:19;;;;;;;15.68;11.80;;;;;;;22.48;51.78;101590.06;5076045;28;20048;-64
2021/07/22 03:46:47;;;;;;;23.20;11.95;;;;;;;22.39;52.31;101588.69;5075377;28;20051;-63
2021/07/22 03:49:16;;;;;;;16.80;11.40;;;;;;;22.27;52.83;101593.28;5075689;28;20502;-64
2021/07/22 03:51:43;;;;;;;18.98;12.05;;;;;;;22.21;53.38;101588.34;5093898;28;20067;-63
2021/07/22 03:54:14;;;;;;;18.33;12.07;;;;;;;22.20;53.67;101593.16;5075534;28;20067;-63
2021/07/22 03:56:42;;;;;;;;;;;;;;;22.32;53.10;101580.94;5065229;28;20426;-63
2021/07/22 03:59:17;;;;;;;18.33;12.55;;;;;;;22.41;52.71;101583.50;5055954;28;19921;-63
2021/07/22 04:01:44;;;;;;;16.90;11.40;;;;;;;22.29;53.05;101581.69;5055781;28;20056;-63
2021/07/22 04:04:19;;;;;;;18.35;11.43;;;;;;;22.53;52.61;101586.13;5055578;28;20053;-63
2021/07/22 04:06:49;;;;;;;19.92;11.52;;;;;;;22.75;52.23;101582.56;5038008;28;20499;-63
2021/07/22 04:09:25;;;;;;;21.98;12.40;;;;;;;22.98;51.39;101586.19;5055196;28;20148;-64
2021/07/22 04:12:31;;;;;;;20.92;12.40;;;;;;;22.60;52.41;101587.13;4991469;28;20058;-64
2021/07/22 04:15:23;;;;;;;19.80;11.48;;;;;;;22.76;51.86;101587.00;4986293;28;20066;-62
2021/07/22 04:18:10;;;;;;;20.42;11.93;;;;;;;22.46;52.55;101595.25;5053886;28;20048;-64
2021/07/22 04:20:57;;;;;;;20.25;12.02;;;;;;;22.48;52.71;101586.44;5074409;28;20048;-63
2021/07/22 04:23:50;;;;;;;21.35;12.38;;;;;;;22.85;51.28;101591.19;5040137;28;20060;-64
2021/07/22 04:26:41;;;;;;;18.48;11.82;;;;;;;22.58;52.11;101600.72;5056379;28;20060;-63
2021/07/22 04:29:28;;;;;;;18.83;11.65;;;;;;;22.95;51.16;101587.72;5076753;28;20057;-63
2021/07/22 04:31:56;;;;;;;18.75;11.45;;;;;;;22.95;50.97;101586.91;5059647;28;20060;-64
2021/07/22 04:34:47;;;;;;;18.33;11.45;;;;;;;22.96;51.25;101588.56;5059121;28;20422;-63
2021/07/22 04:37:40;;;;;;;18.67;12.35;;;;;;;22.76;51.49;101601.84;5074750;28;20071;-63
2021/07/22 04:40:34;;;;;;;17.83;11.77;;;;;;;22.60;51.19;101609.56;5049586;28;20061;-63
2021/07/22 04:43:16;;;;;;;17.70;12.60;;;;;;;22.54;51.89;101604.63;5059505;28;20048;-64
2021/07/22 04:46:04;;;;;;;20.17;11.68;;;;;;;22.66;51.29;101608.09;5059116;28;20045;-64
2021/07/22 04:48:50;;;;;;;16.25;11.48;;;;;;;22.67;51.62;101604.09;5076349;28;20052;-64
2021/07/22 04:51:21;;;;;;;20.77;12.75;;;;;;;22.54;51.76;101613.91;5059000;28;20504;-63
2021/07/22 04:54:05;;;;;;;19.27;12.00;;;;;;;22.58;51.72;101609.13;5061619;28;20080;-62
2021/07/22 04:56:33;;;;;;;19.33;12.18;;;;;;;22.10;52.93;101618.19;5062062;28;20051;-65
2021/07/22 04:59:01;;;;;;;23.10;12.50;;;;;;;22.23;52.75;101614.84;5062349;28;20059;-66
2021/07/22 05:01:30;;;;;;;21.67;12.47;;;;;;;22.33;52.51;101616.25;5078963;28;20052;-64
2021/07/22 05:03:59;;;;;;;19.20;12.40;;;;;;;22.56;51.79;101627.56;5078729;28;20439;-64
2021/07/22 05:06:44;;;;;;;19.75;11.90;;;;;;;22.87;50.91;101619.72;5078712;28;20454;-64
2021/07/22 05:09:32;;;;;;;16.42;11.93;;;;;;;22.70;51.27;101622.22;5085708;28;20059;-63
2021/07/22 05:12:09;;;;;;;17.33;12.02;;;;;;;22.55;51.31;101618.31;5078702;28;20052;-64
2021/07/22 05:14:59;;;;;;;18.05;11.32;;;;;;;22.86;50.74;101617.25;5096253;28;20131;-64
2021/07/22 05:17:42;;;;;;;15.80;11.20;;;;;;;22.75;50.79;101621.91;5078257;28;20044;-64
2021/07/22 05:20:28;;;;;;;17.05;11.30;;;;;;;22.76;50.59;101620.69;5096855;28;20051;-64
2021/07/22 05:23:13;;;;;;;18.67;11.93;;;;;;;22.93;50.13;101611.75;5078566;28;20056;-63
2021/07/22 05:25:49;;;;;;;22.92;12.77;;;;;;;22.60;51.16;101625.63;5078442;28;20059;-63
2021/07/22 05:28:28;;;;;;;17.73;12.10;;;;;;;22.42;51.32;101628.03;5078230;28;20447;-63
2021/07/22 05:31:11;;;;;;;22.75;13.25;;;;;;;22.57;51.20;101630.00;5078493;28;20139;-65
2021/07/22 05:33:57;;;;;;;21.70;12.05;;;;;;;22.82;50.54;101625.63;5080323;28;20057;-65
2021/07/22 05:36:40;;;;;;;21.10;12.75;;;;;;;22.96;50.32;101627.91;5096354;28;20044;-64
2021/07/22 05:39:19;;;;;;;18.95;12.52;;;;;;;22.78;50.79;101624.78;5096356;28;20052;-64
2021/07/22 05:41:47;;;;;;;19.73;12.50;;;;;;;23.09;49.90;101620.88;5096187;28;20048;-65
2021/07/22 05:44:14;;;;;;;21.80;12.77;;;;;;;22.90;50.00;101618.97;5096222;28;20052;-64
2021/07/22 05:46:41;;;;;;;17.98;13.07;;;;;;;22.52;51.08;101627.47;5096492;28;20055;-64
2021/07/22 05:49:10;;;;;;;22.35;12.98;;;;;;;23.02;49.74;101620.75;5095736;28;20067;-64
2021/07/22 05:51:38;;;;;;;21.05;13.18;;;;;;;22.90;50.24;101621.78;5096353;28;20122;-63
2021/07/22 05:54:08;;;;;;;23.55;13.23;;;;;;;22.66;50.43;101621.31;5095819;28;20052;-65
2021/07/22 05:56:36;;;;;;;;;;;;;;;22.64;50.58;101621.69;5086626;28;20055;-64
2021/07/22 05:59:03;;;;;;;21.08;12.00;;;;;;;22.96;49.76;101625.09;5075392;28;19924;-62
2021/07/22 06:01:30;;;;;;;23.02;11.52;;;;;;;23.28;49.09;101624.44;5057861;28;20053;-64
2021/07/22 06:03:58;;;;;;;18.77;11.80;;;;;;;23.11;48.93;101624.94;5075450;28;20040;-65
2021/07/22 06:06:25;;;;;;;21.77;12.35;;;;;;;23.05;49.19;101615.19;5075549;28;20538;-63
2021/07/22 06:08:52;;;;;;;25.75;12.18;;;;;;;23.09;49.40;101615.25;5074958;28;20066;-64
2021/07/22 06:11:19;;;;;;;23.33;12.55;;;;;;;22.80;50.26;101618.78;5075435;28;20468;-63
2021/07/22 06:13:46;;;;;;;22.10;12.75;;;;;;;22.58;50.45;101623.19;5075579;28;20059;-64
2021/07/22 06:16:14;;;;;;;18.90;11.27;;;;;;;22.86;50.13;101622.88;5057396;28;20048;-64
2021/07/22 06:18:42;;;;;;;20.20;11.65;;;;;;;23.06;49.58;101621.63;5056778;28;20055;-52
2021/07/22 06:21:16;;;;;;;17.52;12.15;;;;;;;23.09;48.64;101624.50;5075263;28;20055;-54
2021/07/22 06:23:44;;;;;;;19.88;11.20;;;;;;;22.96;48.49;101622.28;5057376;28;20063;-53
2021/07/22 06:26:12;;;;;;;21.75;12.07;;;;;;;23.02;48.84;101617.94;5074891;28;20049;-54
2021/07/22 06:28:39;;;;;;;16.25;11.77;;;;;;;23.00;48.70;101628.75;5074806;28;20052;-54
2021/07/22 06:31:07;;;;;;;20.30;11.70;;;;;;;23.00;48.95;101626.75;5057538;28;20056;-54
2021/07/22 06:33:34;;;;;;;20.90;12.00;;;;;;;23.05;48.65;101620.81;5075170;28;20037;-51
2021/07/22 06:36:02;;;;;;;16.88;11.38;;;;;;;23.11;48.73;101618.50;5074971;28;20057;-52
2021/07/22 06:38:30;;;;;;;19.27;11.30;;;;;;;23.33;48.16;101612.06;5056991;28;20052;-54
2021/07/22 06:40:58;;;;;;;23.27;11.77;;;;;;;22.89;49.24;101620.13;5057334;28;20056;-54
2021/07/22 06:43:27;;;;;;;18.13;12.10;;;;;;;23.01;48.37;101625.56;5075324;28;20063;-54
2021/07/22 06:45:54;;;;;;;20.70;12.35;;;;;;;22.80;48.95;101627.19;5073748;28;20064;-56
2021/07/22 06:48:22;;;;;;;20.63;12.07;;;;;;;22.93;48.64;101623.00;5074308;28;20052;-56
2021/07/22 06:50:50;;;;;;;22.77;12.93;;;;;;;23.04;48.21;101618.38;5074239;28;20052;-53
2021/07/22 06:53:18;;;;;;;19.27;12.40;;;;;;;22.46;49.59;101628.94;5074428;28;20040;-55
2021/07/22 06:55:48;;;;;;;23.60;11.95;;;;;;;22.78;48.92;101621.97;5076562;28;20055;-55
2021/07/22 06:58:15;;;;;;;19.33;12.20;;;;;;;23.10;47.99;101623.31;5076506;28;20583;-51
2021/07/22 07:00:42;;;;;;;23.08;12.57;;;;;;;23.27;47.61;101619.19;5093520;28;20048;-53
2021/07/22 07:03:10;;;;;;;20.00;11.80;;;;;;;23.33;47.06;101629.75;5094531;28;20059;-53
2021/07/22 07:05:37;;;;;;;21.75;11.88;;;;;;;23.43;46.91;101629.09;5094203;28;20060;-54
2021/07/22 07:08:05;;;;;;;22.88;11.27;;;;;;;23.17;47.19;101633.88;5094227;28;20055;-54
2021/07/22 07:10:32;;;;;;;22.02;11.77;;;;;;;23.27;46.87;101625.63;5094287;28;20044;-54
2021/07/22 07:12:59;;;;;;;19.38;11.40;;;;;;;23.23;46.83;101630.38;5094370;28;20054;-54
2021/07/22 07:15:27;;;;;;;18.33;10.90;;;;;;;23.45;46.33;101622.31;5094819;28;20055;-53
2021/07/22 07:17:57;;;;;;;19.85;11.32;;;;;;;23.65;45.89;101616.19;5094510;28;20131;-52
2021/07/22 07:20:24;;;;;;;21.88;11.60;;;;;;;23.66;45.64;101626.22;5094140;28;20052;-52
2021/07/22 07:22:53;;;;;;;20.27;10.77;;;;;;;23.55;44.77;101628.09;5059827;28;20054;-54
2021/07/22 07:25:21;;;;;;;18.10;10.77;;;;;;;23.29;44.90;101630.91;5094095;28;20051;-53
2021/07/22 07:27:49;;;;;;;19.73;11.25;;;;;;;23.17;45.63;101629.06;5094285;28;20044;-56
2021/07/22 07:30:19;;;;;;;19.63;10.80;;;;;;;23.34;45.77;101633.38;5094168;28;20040;-54
2021/07/22 07:32:47;;;;;;;15.52;10.68;;;;;;;23.62;44.72;101627.38;5093801;28;20048;-55
2021/07/22 07:35:14;;;;;;;17.40;10.45;;;;;;;23.93;44.05;101629.81;5076098;28;20062;-57
2021/07/22 07:37:42;;;;;;;22.00;10.07;;;;;;;24.14;42.40;101635.75;5094319;28;20052;-55
2021/07/22 07:40:10;;;;;;;17.83;10.65;;;;;;;24.34;42.07;101621.13;5093792;28;20047;-55
2021/07/22 07:42:37;;;;;;;17.35;10.38;;;;;;;24.53;41.87;101625.75;5093894;28;20044;-53
2021/07/22 07:45:06;;;;;;;17.90;10.43;;;;;;;24.71;41.62;101625.97;5076084;28;20051;-50
2021/07/22 07:47:33;;;;;;;18.90;10.55;;;;;;;24.93;40.84;101625.00;5094064;28;20048;-52
2021/07/22 07:50:01;;;;;;;19.60;10.27;;;;;;;25.19;40.40;101622.00;5093644;28;20672;-54
2021/07/22 07:52:31;;;;;;;18.30;9.93;;;;;;;25.34;39.50;101623.72;5093933;28;20047;-54
2021/07/22 07:54:58;;;;;;;20.08;10.82;;;;;;;24.92;40.30;101623.34;5075718;28;20265;-53
2021/07/22 07:57:26;;;;;;;23.80;11.20;;;;;;;24.98;40.50;101613.34;5076755;28;20471;-52
2021/07/22 07:59:53;;;;;;;20.38;10.30;;;;;;;25.17;40.02;101619.56;5073396;28;20047;-54
2021/07/22 08:02:20;;;;;;;16.75;10.27;;;;;;;25.21;40.14;101625.25;5073684;28;20053;-50
2021/07/22 08:04:48;;;;;;;20.30;10.55;;;;;;;25.05;40.32;101619.06;5073899;28;20451;-50
2021/07/22 08:07:16;;;;;;;16.77;10.27;;;;;;;25.21;39.83;101619.59;5074065;28;20052;-58
2021/07/22 08:09:47;;;;;;;18.67;10.52;;;;;;;25.16;40.21;101612.28;5073537;28;20044;-56
2021/07/22 08:12:15;;;;;;;;;;;;;;;25.25;40.25;101615.59;5073816;28;20069;-54
2021/07/22 08:14:43;;;;;;;16.13;10.40;;;;;;;25.37;40.40;101608.84;5073101;28;19921;-55
2021/07/22 08:17:17;;;;;;;22.17;10.00;;;;;;;25.77;39.95;101602.25;5074016;28;20078;-56
2021/07/22 08:19:44;;;;;;;17.08;10.13;;;;;;;25.56;40.06;101615.03;5073982;28;20298;-53
2021/07/22 08:22:13;;;;;;;17.85;10.63;;;;;;;25.26;40.70;101608.72;5073607;28;20048;-56
2021/07/22 08:24:41;;;;;;;16.15;10.18;;;;;;;25.16;40.61;101605.84;5073475;28;20051;-52
2021/07/22 08:27:08;;;;;;;20.80;10.65;;;;;;;25.16;41.19;101603.81;5073272;28;20071;-54
2021/07/22 08:29:39;;;;;;;18.45;11.07;;;;;;;25.04;41.29;101617.41;5073047;28;20049;-52
2021/07/22 08:32:07;;;;;;;17.92;11.20;;;;;;;25.17;41.35;101607.47;5073183;28;20055;-54
2021/07/22 08:34:34;;;;;;;17.80;11.52;;;;;;;25.19;41.37;101616.34;5073076;28;20055;-54
2021/07/22 08:37:06;;;;;;;22.38;11.70;;;;;;;25.18;41.70;101609.06;5073296;28;20051;-53
2021/07/22 08:39:39;;;;;;;20.55;11.10;;;;;;;24.89;42.03;101612.88;5073016;28;20123;-53
2021/07/22 08:42:07;;;;;;;22.77;10.73;;;;;;;25.08;42.01;101607.00;5072315;28;20507;-54
2021/07/22 08:44:35;;;;;;;21.05;11.23;;;;;;;25.03;41.61;101616.63;5072765;28;20064;-53
2021/07/22 08:47:08;;;;;;;19.38;11.70;;;;;;;24.78;41.58;101615.59;5072986;28;20057;-55
2021/07/22 08:49:37;;;;;;;16.63;10.82;;;;;;;24.91;41.39;101619.75;5054056;28;20053;-54
2021/07/22 08:52:09;;;;;;;20.50;11.40;;;;;;;24.64;41.84;101615.41;5072973;28;20049;-53
2021/07/22 08:54:37;;;;;;;19.45;11.35;;;;;;;24.79;41.74;101617.22;5072895;28;20060;-55
2021/07/22 08:57:06;;;;;;;24.33;11.95;;;;;;;24.72;41.92;101608.69;5086374;28;20052;-54
2021/07/22 08:59:34;;;;;;;16.02;11.35;;;;;;;24.99;41.38;101624.25;5093058;28;20052;-55
2021/07/22 09:02:02;;;;;;;19.35;11.07;;;;;;;24.75;41.40;101610.72;5076372;28;20041;-55
2021/07/22 09:04:29;;;;;;;15.40;10.73;;;;;;;25.10;41.27;101618.69;5072900;28;20063;-57
2021/07/22 09:06:57;;;;;;;16.38;10.52;;;;;;;25.17;40.80;101615.94;5073319;28;20052;-55
2021/07/22 09:09:24;;;;;;;18.45;10.55;;;;;;;24.87;41.39;101620.88;5058223;28;20056;-55
2021/07/22 09:11:55;;;;;;;20.20;11.10;;;;;;;24.79;41.93;101611.59;5076658;28;20048;-55
2021/07/22 09:14:24;;;;;;;16.88;10.07;;;;;;;24.94;41.25;101627.41;5058204;28;20060;-56
2021/07/22 09:16:51;;;;;;;17.67;10.43;;;;;;;24.73;41.43;101624.38;5076538;28;20040;-56
2021/07/22 09:19:41;;;;;;;17.95;10.55;;;;;;;24.65;42.31;101617.03;5058672;28;20055;-56
2021/07/22 09:22:10;;;;;;;19.30;10.65;;;;;;;24.88;41.57;101614.06;5058001;28;20048;-51
2021/07/22 09:24:47;;;;;;;19.45;9.90;;;;;;;25.03;41.24;101611.00;5076341;28;20055;-55
2021/07/22 09:27:41;;;;;;;16.80;11.07;;;;;;;25.33;40.75;101608.78;5076044;28;20052;-53
2021/07/22 09:30:16;;;;;;;20.30;11.23;;;;;;;24.95;41.19;101623.38;5058019;28;20424;-54
2021/07/22 09:32:47;;;;;;;20.50;10.80;;;;;;;24.81;41.62;101606.34;5076164;28;20052;-55
2021/07/22 09:35:23;;;;;;;25.48;11.75;;;;;;;25.01;41.48;101607.75;5058110;28;20063;-57
2021/07/22 09:37:52;;;;;;;17.95;10.07;;;;;;;25.18;41.23;101607.06;5076229;28;20063;-61
2021/07/22 09:40:25;;;;;;;19.02;10.73;;;;;;;25.27;40.74;101606.72;5075746;28;20068;-54
2021/07/22 09:42:54;;;;;;;20.25;10.32;;;;;;;25.44;40.57;101608.91;5075402;28;20055;-55
2021/07/22 09:45:26;;;;;;;15.75;10.70;;;;;;;25.48;39.91;101612.56;5075648;28;20396;-55
2021/07/22 09:47:55;;;;;;;15.43;9.98;;;;;;;25.39;40.41;101603.63;5075874;28;20048;-54
2021/07/22 09:50:25;;;;;;;17.08;10.05;;;;;;;25.30;40.31;101600.31;5075463;28;20052;-55
2021/07/22 09:53:10;;;;;;;;;;;;;;;25.50;39.99;101598.88;5075618;28;20063;-51
2021/07/22 09:55:39;;;;;;;19.65;10.80;;;;;;;25.29;40.79;101602.34;5075345;28;19926;-54
2021/07/22 09:58:08;;;;;;;15.00;9.73;;;;;;;25.46;40.63;101601.66;5075724;28;20064;-52
2021/07/22 10:00:41;;;;;;;18.48;10.48;;;;;;;25.33;40.29;101594.69;5075312;28;20514;-55
2021/07/22 10:03:13;;;;;;;19.58;9.90;;;;;;;25.48;40.11;101602.09;5075575;28;20080;-53
2021/07/22 10:05:45;;;;;;;18.15;10.27;;;;;;;25.33;40.35;101588.25;5075624;28;20059;-55
2021/07/22 10:08:19;;;;;;;17.90;11.45;;;;;;;25.06;40.43;101606.56;5075608;28;20057;-54
2021/07/22 10:10:51;;;;;;;16.15;9.88;;;;;;;24.99;40.77;101589.59;5075103;28;20048;-53
2021/07/22 10:13:25;;;;;;;16.42;10.18;;;;;;;25.07;40.83;101594.88;5075534;28;20055;-56
2021/07/22 10:15:53;;;;;;;22.42;10.20;;;;;;;25.15;40.70;101585.31;5075007;28;20052;-56
2021/07/22 10:18:22;;;;;;;15.98;9.43;;;;;;;25.34;40.47;101584.22;5057314;28;20722;-51
2021/07/22 10:20:56;;;;;;;14.60;10.18;;;;;;;25.40;39.84;101588.34;5074770;28;20048;-52
2021/07/22 10:23:24;;;;;;;19.42;9.52;;;;;;;25.37;40.10;101567.34;5075183;28;20048;-52
2021/07/22 10:25:51;;;;;;;16.08;9.02;;;;;;;25.48;39.97;101592.81;5040501;28;20533;-50
2021/07/22 10:28:19;;;;;;;15.35;9.20;;;;;;;25.52;40.33;101573.91;5075371;28;20085;-54
2021/07/22 10:30:47;;;;;;;16.13;10.23;;;;;;;25.42;40.30;101564.16;5074810;28;20049;-56
2021/07/22 10:33:21;;;;;;;13.93;9.65;;;;;;;25.44;40.17;101556.13;5075028;28;20044;-53
2021/07/22 10:35:52;;;;;;;14.85;9.85;;;;;;;25.56;40.00;101557.78;5074855;28;20052;-55
2021/07/22 10:38:21;;;;;;;11.90;8.85;;;;;;;25.52;39.91;101556.97;5057130;28;20052;-53
2021/07/22 10:41:01;;;;;;;13.18;9.07;;;;;;;25.38;39.45;101552.06;5074365;28;20045;-56
2021/07/22 10:43:46;;;;;;;12.73;8.55;;;;;;;25.53;38.72;101552.94;5074701;28;20053;-50
2021/07/22 10:46:20;;;;;;;15.50;8.60;;;;;;;25.50;39.20;101548.09;5074775;28;20055;-53
2021/07/22 10:48:48;;;;;;;13.85;8.35;;;;;;;25.68;39.07;101551.00;5074499;28;20060;-53
2021/07/22 10:51:16;;;;;;;15.98;8.40;;;;;;;25.80;38.51;101551.47;5056696;28;20498;-55
2021/07/22 10:53:49;;;;;;;15.27;8.85;;;;;;;25.99;37.60;101547.50;5074297;28;20073;-55
2021/07/22 10:56:18;;;;;;;17.02;11.57;;;;;;;25.85;39.09;101547.44;5081239;28;20078;-55
2021/07/22 10:58:46;;;;;;;;;;;;;;;26.00;38.67;101552.75;5077454;28;20048;-53
2021/07/22 11:01:13;;;;;;;14.93;9.20;;;;;;;25.88;38.59;101541.81;5093990;28;19926;-53
2021/07/22 11:03:41;;;;;;;13.63;9.02;;;;;;;25.89;38.43;101534.16;5094510;28;20056;-53
2021/07/22 11:06:09;;;;;;;16.05;9.10;;;;;;;25.90;39.15;101539.41;5094775;28;20044;-55
2021/07/22 11:08:37;;;;;;;11.65;9.68;;;;;;;25.93;39.30;101532.13;5094509;28;20531;-56
2021/07/22 11:11:09;;;;;;;14.13;8.87;;;;;;;25.93;39.47;101532.97;5094540;28;20048;-57
2021/07/22 11:13:40;;;;;;;12.60;9.18;;;;;;;26.12;38.37;101529.81;5094696;28;20048;-53
2021/07/22 11:16:25;;;;;;;14.73;9.65;;;;;;;26.23;38.27;101539.13;5093914;28;20051;-51
2021/07/22 11:18:54;;;;;;;12.88;9.32;;;;;;;26.31;37.70;101520.97;5094376;28;20510;-54
2021/07/22 11:21:34;;;;;;;17.23;8.20;;;;;;;26.29;37.48;101529.03;5094090;28;20435;-54
2021/07/22 11:24:19;;;;;;;13.02;8.38;;;;;;;26.28;38.05;101524.63;5076316;28;20557;-50
2021/07/22 11:26:51;;;;;;;12.52;8.68;;;;;;;26.27;37.59;101531.50;5094152;28;20055;-52
2021/07/22 11:29:20;;;;;;;13.20;8.90;;;;;;;26.14;37.84;101518.13;5094919;28;20059;-50
2021/07/22 11:31:49;;;;;;;13.10;8.50;;;;;;;26.06;37.58;101520.13;5093942;28;20048;-52